createdAt,value
2019-04-21T00:01:12.742Z,5.23
2019-04-21T00:03:50.168Z,4.53
2019-04-21T00:06:37.010Z,4.70
2019-04-21T00:09:15.989Z,5.17
2019-04-21T00:11:42.566Z,4.63
2019-04-21T00:14:05.757Z,4.67
2019-04-21T00:16:34.784Z,4.80
2019-04-21T00:19:10.807Z,4.73
2019-04-21T00:21:44.769Z,4.40
2019-04-21T00:24:25.001Z,4.40
2019-04-21T00:27:02.477Z,4.70
2019-04-21T00:32:06.767Z,4.70
2019-04-21T00:34:23.746Z,5.40
2019-04-21T00:37:08.241Z,5.47
2019-04-21T00:40:00.163Z,4.10
2019-04-21T00:42:19.391Z,4.80
2019-04-21T00:44:47.324Z,5.23
2019-04-21T00:47:26.657Z,5.40
2019-04-21T00:50:01.943Z,4.20
2019-04-21T00:52:58.155Z,5.10
2019-04-21T00:55:38.698Z,5.03
2019-04-21T00:58:10.762Z,5.47
2019-04-21T01:00:42.703Z,4.70
2019-04-21T01:03:14.809Z,4.70
2019-04-21T01:05:51.771Z,4.20
2019-04-21T01:08:19.950Z,5.40
2019-04-21T01:10:43.550Z,5.17
2019-04-21T01:13:27.267Z,5.37
2019-04-21T01:16:03.336Z,4.43
2019-04-21T01:18:27.198Z,5.50
2019-04-21T01:20:40.497Z,4.93
2019-04-21T01:23:12.579Z,4.97
2019-04-21T01:25:55.819Z,4.70
2019-04-21T01:28:34.404Z,5.07
2019-04-21T01:31:11.125Z,5.30
2019-04-21T01:33:46.100Z,5.77
2019-04-21T01:36:08.453Z,4.60
2019-04-21T01:38:52.049Z,6.70
2019-04-21T01:41:21.316Z,4.80
2019-04-21T01:43:53.476Z,5.60
2019-04-21T01:46:19.553Z,5.43
2019-04-21T01:48:49.432Z,5.27
2019-04-21T01:51:32.084Z,6.37
2019-04-21T01:54:14.857Z,4.63
2019-04-21T01:56:52.652Z,5.43
2019-04-21T01:59:20.428Z,5.03
2019-04-21T02:02:00.461Z,4.23
2019-04-21T02:04:37.211Z,5.50
2019-04-21T02:07:11.633Z,5.00
2019-04-21T02:09:57.003Z,5.00
2019-04-21T02:12:17.252Z,5.07
2019-04-21T02:14:50.535Z,5.47
2019-04-21T02:17:17.436Z,5.23
2019-04-21T02:19:44.840Z,4.90
2019-04-21T02:22:24.618Z,5.13
2019-04-21T02:24:58.396Z,5.20
2019-04-21T02:27:29.852Z,5.63
2019-04-21T02:30:05.301Z,4.50
2019-04-21T02:32:47.965Z,4.90
2019-04-21T02:35:24.618Z,5.40
2019-04-21T02:37:54.868Z,5.80
2019-04-21T02:40:25.640Z,5.30
2019-04-21T02:43:03.271Z,4.90
2019-04-21T02:45:25.047Z,4.60
2019-04-21T02:48:04.532Z,5.20
2019-04-21T02:50:26.506Z,4.00
2019-04-21T02:53:06.985Z,4.60
2019-04-21T02:55:31.248Z,4.53
2019-04-21T02:58:06.302Z,4.57
2019-04-21T03:00:59.622Z,5.03
2019-04-21T03:06:24.761Z,4.73
2019-04-21T03:08:59.049Z,4.57
2019-04-21T03:11:21.963Z,5.00
2019-04-21T03:16:26.338Z,3.93
2019-04-21T03:21:28.874Z,4.00
2019-04-21T03:24:03.945Z,4.93
2019-04-21T03:29:12.451Z,4.27
2019-04-21T03:39:18.328Z,5.33
2019-04-21T03:41:56.802Z,4.77
2019-04-21T03:44:26.868Z,4.70
2019-04-21T03:46:56.091Z,4.67
2019-04-21T03:49:40.743Z,4.30
2019-04-21T03:52:03.877Z,4.90
2019-04-21T03:54:36.826Z,4.30
2019-04-21T03:59:37.586Z,5.10
2019-04-21T04:05:13.096Z,5.20
2019-04-21T04:07:50.209Z,4.40
2019-04-21T04:10:14.126Z,4.33
2019-04-21T04:12:52.591Z,4.17
2019-04-21T04:18:23.464Z,5.50
2019-04-21T04:20:28.015Z,4.00
2019-04-21T04:23:08.004Z,4.10
2019-04-21T04:25:27.346Z,4.60
2019-04-21T04:28:10.176Z,5.03
2019-04-21T04:30:39.453Z,4.10
2019-04-21T04:33:15.482Z,4.53
2019-04-21T04:35:56.064Z,4.00
2019-04-21T04:38:35.445Z,4.17
2019-04-21T04:41:24.546Z,5.17
2019-04-21T04:46:18.428Z,4.70
2019-04-21T04:48:53.234Z,4.70
2019-04-21T04:51:33.479Z,4.63
2019-04-21T04:53:56.090Z,4.47
2019-04-21T04:56:30.725Z,4.40
2019-04-21T05:04:05.967Z,4.30
2019-04-21T05:19:20.791Z,4.47
2019-04-21T05:21:46.225Z,5.20
2019-04-21T05:24:13.701Z,5.10
2019-04-21T05:26:44.726Z,4.23
2019-04-21T05:29:18.486Z,4.60
2019-04-21T05:32:09.246Z,4.87
2019-04-21T05:34:38.700Z,3.80
2019-04-21T05:37:35.339Z,4.47
2019-04-21T05:40:15.768Z,3.90
2019-04-21T05:42:53.294Z,4.80
2019-04-21T05:45:26.893Z,3.90
2019-04-21T05:48:13.454Z,4.10
2019-04-21T05:50:32.086Z,4.10
2019-04-21T05:53:19.327Z,4.27
2019-04-21T05:55:51.866Z,3.57
2019-04-21T05:58:14.641Z,4.10
2019-04-21T06:06:08.524Z,3.60
2019-04-21T06:08:37.159Z,4.90
2019-04-21T06:11:07.292Z,4.10
2019-04-21T06:16:17.408Z,3.60
2019-04-21T06:18:48.631Z,3.47
2019-04-21T06:21:16.431Z,4.00
2019-04-21T06:23:45.029Z,3.53
2019-04-21T06:28:53.025Z,4.00
2019-04-21T06:31:57.803Z,3.60
2019-04-21T06:33:58.872Z,3.90
2019-04-21T06:36:57.311Z,3.37
2019-04-21T06:41:39.777Z,3.23
2019-04-21T06:44:16.452Z,3.67
2019-04-21T06:46:45.289Z,3.80
2019-04-21T06:49:13.387Z,3.60
2019-04-21T06:51:58.181Z,3.40
2019-04-21T06:54:29.993Z,3.43
2019-04-21T06:56:56.784Z,4.33
2019-04-21T06:59:26.636Z,4.70
2019-04-21T07:02:26.308Z,5.23
2019-04-21T07:04:36.819Z,4.93
2019-04-21T07:07:05.294Z,5.17
2019-04-21T07:09:39.298Z,5.10
2019-04-21T07:12:13.805Z,5.93
2019-04-21T07:14:45.132Z,4.50
2019-04-21T07:17:26.883Z,5.40
2019-04-21T07:19:55.854Z,4.17
2019-04-21T07:22:24.552Z,5.20
2019-04-21T07:24:58.933Z,4.80
2019-04-21T07:27:33.914Z,4.83
2019-04-21T07:30:04.257Z,4.60
2019-04-21T07:32:36.334Z,5.47
2019-04-21T07:37:39.157Z,4.30
2019-04-21T07:40:07.890Z,4.50
2019-04-21T07:42:38.424Z,4.70
2019-04-21T07:45:09.072Z,4.70
2019-04-21T07:47:50.661Z,4.97
2019-04-21T07:50:35.024Z,4.70
2019-04-21T07:53:19.405Z,4.50
2019-04-21T07:58:17.758Z,4.17
2019-04-21T08:00:51.238Z,4.30
2019-04-21T08:03:20.674Z,4.63
2019-04-21T08:05:55.958Z,4.03
2019-04-21T08:08:23.416Z,4.00
2019-04-21T08:10:50.640Z,3.80
2019-04-21T08:13:39.189Z,4.40
2019-04-21T08:16:04.613Z,4.30
2019-04-21T08:18:47.250Z,3.70
2019-04-21T08:21:05.829Z,4.13
2019-04-21T08:23:37.019Z,4.73
2019-04-21T08:26:10.381Z,3.90
2019-04-21T08:28:49.487Z,3.77
2019-04-21T08:31:30.530Z,3.70
2019-04-21T08:33:55.332Z,4.07
2019-04-21T08:36:25.046Z,3.50
2019-04-21T08:38:53.987Z,3.93
2019-04-21T08:41:23.023Z,4.10
2019-04-21T08:43:58.975Z,3.57
2019-04-21T08:46:34.445Z,3.67
2019-04-21T08:49:04.678Z,5.20
2019-04-21T08:51:53.915Z,4.00
2019-04-21T08:54:09.478Z,3.40
2019-04-21T08:57:05.946Z,3.57
2019-04-21T08:59:58.670Z,3.10
2019-04-21T09:02:57.404Z,3.53
2019-04-21T09:05:23.498Z,3.40
2019-04-21T09:08:00.382Z,3.23
2019-04-21T09:10:30.478Z,3.73
2019-04-21T09:13:00.179Z,3.50
2019-04-21T09:15:30.976Z,3.50
2019-04-21T09:18:04.943Z,3.60
2019-04-21T09:20:46.093Z,3.50
2019-04-21T09:23:15.939Z,3.17
2019-04-21T09:25:46.869Z,3.13
2019-04-21T09:28:15.678Z,3.73
2019-04-21T09:30:38.751Z,3.27
2019-04-21T09:33:05.287Z,3.57
2019-04-21T09:35:34.311Z,2.83
2019-04-21T09:38:16.237Z,3.90
2019-04-21T09:40:43.927Z,3.70
2019-04-21T09:43:13.074Z,3.20
2019-04-21T09:45:43.088Z,3.03
2019-04-21T09:48:17.677Z,3.30
2019-04-21T09:50:45.931Z,4.10
2019-04-21T09:53:26.395Z,3.97
2019-04-21T09:55:54.527Z,3.50
2019-04-21T09:58:29.317Z,3.37
2019-04-21T10:01:06.194Z,3.50
2019-04-21T10:03:26.374Z,2.97
2019-04-21T10:05:57.097Z,3.37
2019-04-21T10:08:29.489Z,3.57
2019-04-21T10:11:00.071Z,3.70
2019-04-21T10:13:31.847Z,3.20
2019-04-21T10:16:24.534Z,4.10
2019-04-21T10:18:56.654Z,3.40
2019-04-21T10:21:28.029Z,3.80
2019-04-21T10:23:59.893Z,3.67
2019-04-21T10:26:31.194Z,3.73
2019-04-21T10:29:08.233Z,3.53
2019-04-21T10:31:34.628Z,3.80
2019-04-21T10:34:05.308Z,3.50
2019-04-21T10:36:37.222Z,4.40
2019-04-21T10:39:09.368Z,4.67
2019-04-21T10:41:39.930Z,4.10
2019-04-21T10:44:11.482Z,4.53
2019-04-21T10:46:42.827Z,4.43
2019-04-21T10:49:14.813Z,4.70
2019-04-21T10:51:46.644Z,4.23
2019-04-21T10:54:17.902Z,4.57
2019-04-21T10:56:49.282Z,4.40
2019-04-21T10:59:20.744Z,4.93
2019-04-21T11:01:52.673Z,4.20
2019-04-21T11:04:34.590Z,4.37
2019-04-21T11:07:10.765Z,5.23
2019-04-21T11:09:39.947Z,5.00
2019-04-21T11:12:10.798Z,6.20
2019-04-21T11:14:41.344Z,4.33
2019-04-21T11:17:14.684Z,5.20
2019-04-21T11:19:46.539Z,4.27
2019-04-21T11:22:17.196Z,4.03
2019-04-21T11:24:48.988Z,5.57
2019-04-21T11:27:19.848Z,4.70
2019-04-21T11:29:51.588Z,4.60
2019-04-21T11:32:23.166Z,5.83
2019-04-21T11:34:54.835Z,5.73
2019-04-21T11:37:30.496Z,6.13
2019-04-21T11:40:07.175Z,6.23
2019-04-21T11:42:41.891Z,6.03
2019-04-21T11:45:19.202Z,6.00
2019-04-21T11:48:10.707Z,5.47
2019-04-21T11:50:47.012Z,4.77
2019-04-21T11:53:18.945Z,5.13
2019-04-21T11:55:51.981Z,5.50
2019-04-21T11:58:22.003Z,4.70
2019-04-21T12:00:57.949Z,6.77
2019-04-21T12:03:29.498Z,4.80
2019-04-21T12:06:03.721Z,5.07
2019-04-21T12:08:40.801Z,5.23
2019-04-21T12:11:09.363Z,4.77
2019-04-21T12:13:40.379Z,4.83
2019-04-21T12:16:12.875Z,6.57
2019-04-21T12:18:45.128Z,5.37
2019-04-21T12:21:15.867Z,5.67
2019-04-21T12:23:46.491Z,4.63
2019-04-21T12:26:18.021Z,4.83
2019-04-21T12:28:50.045Z,5.20
2019-04-21T12:31:31.704Z,5.37
2019-04-21T12:34:04.138Z,5.37
2019-04-21T12:36:35.804Z,4.90
2019-04-21T12:39:10.678Z,5.00
2019-04-21T12:41:42.496Z,4.73
2019-04-21T12:44:13.325Z,4.93
2019-04-21T12:46:43.848Z,4.33
2019-04-21T12:49:15.846Z,4.97
2019-04-21T12:51:51.661Z,5.27
2019-04-21T12:54:25.934Z,4.60
2019-04-21T12:56:56.624Z,4.73
2019-04-21T12:59:29.187Z,5.50
2019-04-21T13:02:01.022Z,4.30
2019-04-21T13:04:31.937Z,4.00
2019-04-21T13:07:03.717Z,4.63
2019-04-21T13:09:36.149Z,5.03
2019-04-21T13:12:07.057Z,4.80
2019-04-21T13:14:37.974Z,4.30
2019-04-21T13:17:09.872Z,4.50
2019-04-21T13:19:41.229Z,4.40
2019-04-21T13:22:12.275Z,4.03
2019-04-21T13:24:44.102Z,5.23
2019-04-21T13:27:15.690Z,5.30
2019-04-21T13:29:46.329Z,4.67
2019-04-21T13:32:18.473Z,5.50
2019-04-21T13:34:50.803Z,5.27
2019-04-21T13:37:21.785Z,4.37
2019-04-21T13:40:29.375Z,5.17
2019-04-21T13:42:49.621Z,4.87
2019-04-21T13:45:18.345Z,4.47
2019-04-21T13:47:50.152Z,4.80
2019-04-21T13:50:21.802Z,5.10
2019-04-21T13:52:54.474Z,4.57
2019-04-21T13:55:27.622Z,4.47
2019-04-21T13:57:58.874Z,4.83
2019-04-21T14:00:31.765Z,4.57
2019-04-21T14:03:02.963Z,4.27
2019-04-21T14:05:33.771Z,4.47
2019-04-21T14:08:05.159Z,4.90
2019-04-21T14:10:35.704Z,5.03
2019-04-21T14:13:06.698Z,4.63
2019-04-21T14:15:37.854Z,4.70
2019-04-21T14:18:08.824Z,4.20
2019-04-21T14:20:39.718Z,4.80
2019-04-21T14:23:21.338Z,5.07
2019-04-21T14:25:43.833Z,4.37
2019-04-21T14:28:15.524Z,4.83
2019-04-21T14:30:46.316Z,3.67
2019-04-21T14:33:18.196Z,4.70
2019-04-21T14:35:48.801Z,5.23
2019-04-21T14:38:20.621Z,4.93
2019-04-21T14:40:54.146Z,4.47
2019-04-21T14:43:25.935Z,5.27
2019-04-21T14:46:08.940Z,4.40
2019-04-21T14:49:11.109Z,4.53
2019-04-21T14:51:59.374Z,4.07
2019-04-21T14:54:51.327Z,4.77
2019-04-21T14:57:23.086Z,4.00
2019-04-21T14:59:55.074Z,4.03
2019-04-21T15:02:25.831Z,4.40
2019-04-21T15:04:57.693Z,4.70
2019-04-21T15:07:28.922Z,3.97
2019-04-21T15:10:07.873Z,4.53
2019-04-21T15:12:31.865Z,5.30
2019-04-21T15:15:05.765Z,4.47
2019-04-21T15:17:36.171Z,4.80
2019-04-21T15:20:11.241Z,4.13
2019-04-21T15:22:41.741Z,4.53
2019-04-21T15:25:14.105Z,4.93
2019-04-21T15:27:45.120Z,4.10
2019-04-21T15:30:18.603Z,3.90
2019-04-21T15:32:52.617Z,4.23
2019-04-21T15:35:24.654Z,4.30
2019-04-21T15:37:55.921Z,4.30
2019-04-21T15:40:37.483Z,4.33
2019-04-21T15:43:00.080Z,4.47
2019-04-21T15:45:30.886Z,4.30
2019-04-21T15:48:02.246Z,4.50
2019-04-21T15:50:32.919Z,4.00
2019-04-21T15:53:05.722Z,3.93
2019-04-21T15:56:13.141Z,4.40
2019-04-21T15:59:06.402Z,4.30
2019-04-21T16:01:54.629Z,4.40
2019-04-21T16:04:25.326Z,4.03
2019-04-21T16:06:57.372Z,4.80
2019-04-21T16:09:30.396Z,4.90
2019-04-21T16:12:01.802Z,4.60
2019-04-21T16:14:32.823Z,4.30
2019-04-21T16:17:03.450Z,4.93
2019-04-21T16:19:34.179Z,3.97
2019-04-21T16:22:04.723Z,5.10
2019-04-21T16:24:35.621Z,4.60
2019-04-21T16:27:08.446Z,4.70
2019-04-21T16:29:39.524Z,10.13
2019-04-21T16:32:11.514Z,3.83
2019-04-21T16:34:48.977Z,5.60
2019-04-21T16:37:15.282Z,4.70
2019-04-21T16:39:47.472Z,4.50
2019-04-21T16:42:20.318Z,4.03
2019-04-21T16:44:50.997Z,4.80
2019-04-21T16:47:24.155Z,3.60
2019-04-21T16:49:57.870Z,5.10
2019-04-21T16:52:40.305Z,4.60
2019-04-21T16:55:21.639Z,4.37
2019-04-21T16:58:04.647Z,4.00
2019-04-21T17:00:37.779Z,4.70
2019-04-21T17:03:01.325Z,4.47
2019-04-21T17:05:32.211Z,4.10
2019-04-21T17:08:04.079Z,3.60
2019-04-21T17:10:35.018Z,3.90
2019-04-21T17:13:06.226Z,3.70
2019-04-21T17:15:58.284Z,4.50
2019-04-21T17:18:28.256Z,3.10
2019-04-21T17:20:47.393Z,3.27
2019-04-21T17:23:13.781Z,3.40
2019-04-21T17:25:45.336Z,3.20
2019-04-21T17:28:17.304Z,3.07
2019-04-21T17:30:48.502Z,3.20
2019-04-21T17:33:25.688Z,3.10
2019-04-21T17:35:51.527Z,3.67
2019-04-21T17:38:22.064Z,3.63
2019-04-21T17:40:53.856Z,3.37
2019-04-21T17:43:25.738Z,2.93
2019-04-21T17:45:57.463Z,3.90
2019-04-21T17:48:29.273Z,3.13
2019-04-21T17:51:40.569Z,3.07
2019-04-21T17:54:24.787Z,3.23
2019-04-21T17:57:11.208Z,3.40
2019-04-21T17:59:54.943Z,3.70
2019-04-21T18:02:13.004Z,3.50
2019-04-21T18:04:49.666Z,2.63
2019-04-21T18:07:27.478Z,2.73
2019-04-21T18:10:19.070Z,3.10
2019-04-21T18:12:33.694Z,3.80
2019-04-21T18:15:00.200Z,4.00
2019-04-21T18:17:24.735Z,3.50
2019-04-21T18:19:57.221Z,4.00
2019-04-21T18:22:47.994Z,4.00
2019-04-21T18:25:31.981Z,3.17
2019-04-21T18:27:52.879Z,2.47
2019-04-21T18:30:52.080Z,3.80
2019-04-21T18:33:31.314Z,3.03
2019-04-21T18:36:22.538Z,3.60
2019-04-21T18:39:09.837Z,3.40
2019-04-21T18:41:30.283Z,3.93
2019-04-21T18:44:32.192Z,3.73
2019-04-21T18:47:23.973Z,3.07
2019-04-21T18:49:43.736Z,3.50
2019-04-21T18:52:27.104Z,3.57
2019-04-21T18:55:06.556Z,3.70
2019-04-21T18:57:33.156Z,3.10
2019-04-21T18:59:55.597Z,3.67
2019-04-21T19:02:26.702Z,3.30
2019-04-21T19:05:01.481Z,3.33
2019-04-21T19:07:51.998Z,3.23
2019-04-21T19:13:20.319Z,3.20
2019-04-21T19:15:27.832Z,3.80
2019-04-21T19:18:32.499Z,2.73
2019-04-21T19:20:52.229Z,2.70
2019-04-21T19:23:05.554Z,3.10
2019-04-21T19:25:42.521Z,3.37
2019-04-21T19:28:09.760Z,3.30
2019-04-21T19:30:50.706Z,2.80
2019-04-21T19:33:22.396Z,3.20
2019-04-21T19:35:35.287Z,2.63
2019-04-21T19:38:10.115Z,3.20
2019-04-21T19:40:50.892Z,3.60
2019-04-21T19:43:31.460Z,3.50
2019-04-21T19:45:59.357Z,3.43
2019-04-21T19:48:33.257Z,2.70
2019-04-21T19:51:05.665Z,2.90
2019-04-21T19:53:32.903Z,3.40
2019-04-21T19:55:52.091Z,3.00
2019-04-21T19:58:29.470Z,3.50
2019-04-21T20:00:57.595Z,3.27
2019-04-21T20:03:28.562Z,3.37
2019-04-21T20:06:10.303Z,3.00
2019-04-21T20:08:43.232Z,2.73
2019-04-21T20:11:19.130Z,3.60
2019-04-21T20:14:14.119Z,3.27
2019-04-21T20:16:33.718Z,3.23
2019-04-21T20:18:46.942Z,2.63
2019-04-21T20:21:14.224Z,2.80
2019-04-21T20:23:46.623Z,3.30
2019-04-21T20:26:21.045Z,3.90
2019-04-21T20:29:02.429Z,3.30
2019-04-21T20:31:40.923Z,2.90
2019-04-21T20:34:21.170Z,2.90
2019-04-21T20:36:47.653Z,3.07
2019-04-21T20:39:07.209Z,3.07
2019-04-21T20:41:44.227Z,3.80
2019-04-21T20:44:23.024Z,3.20
2019-04-21T20:46:54.544Z,3.53
2019-04-21T20:49:21.752Z,2.73
2019-04-21T20:52:03.647Z,3.20
2019-04-21T20:54:31.728Z,3.17
2019-04-21T20:57:04.280Z,3.03
2019-04-21T20:59:34.437Z,3.03
2019-04-21T21:02:10.321Z,2.80
2019-04-21T21:04:34.949Z,2.80
2019-04-21T21:07:28.220Z,3.67
2019-04-21T21:09:54.414Z,3.60
2019-04-21T21:12:32.958Z,2.83
2019-04-21T21:14:50.271Z,3.80
2019-04-21T21:17:42.629Z,3.87
2019-04-21T21:20:02.686Z,3.23
2019-04-21T21:22:29.063Z,2.73
2019-04-21T21:25:03.517Z,3.63
2019-04-21T21:27:34.157Z,3.53
2019-04-21T21:30:05.441Z,2.47
2019-04-21T21:32:37.430Z,3.30
2019-04-21T21:35:12.977Z,3.50
2019-04-21T21:37:49.035Z,3.13
2019-04-21T21:40:16.057Z,2.83
2019-04-21T21:42:35.349Z,2.97
2019-04-21T21:45:15.058Z,3.83
2019-04-21T21:47:56.261Z,3.33
2019-04-21T21:50:20.853Z,3.47
2019-04-21T21:52:52.446Z,3.30
2019-04-21T21:55:15.931Z,3.13
2019-04-21T21:57:50.351Z,3.67
2019-04-21T22:00:23.960Z,4.00
2019-04-21T22:02:56.636Z,3.37
2019-04-21T22:05:29.986Z,3.00
2019-04-21T22:08:00.553Z,2.93
2019-04-21T22:10:31.427Z,3.13
2019-04-21T22:13:07.201Z,2.70
2019-04-21T22:15:35.579Z,3.90
2019-04-21T22:18:25.994Z,3.20
2019-04-21T22:20:55.192Z,4.60
2019-04-21T22:23:23.332Z,3.40
2019-04-21T22:25:44.336Z,2.40
2019-04-21T22:28:15.766Z,3.10
2019-04-21T22:30:50.916Z,3.57
2019-04-21T22:33:21.342Z,3.07
2019-04-21T22:36:00.428Z,3.03
2019-04-21T22:38:38.682Z,3.40
2019-04-21T22:41:10.029Z,3.87
2019-04-21T22:43:37.669Z,3.30
2019-04-21T22:46:01.288Z,3.30
2019-04-21T22:48:32.574Z,3.50
2019-04-21T22:51:07.144Z,3.30
2019-04-21T22:53:42.826Z,3.17
2019-04-21T22:56:14.904Z,3.30
2019-04-21T22:58:42.933Z,3.83
2019-04-21T23:01:13.116Z,3.27
2019-04-21T23:03:50.246Z,4.20
2019-04-21T23:06:22.037Z,3.10
2019-04-21T23:08:51.112Z,3.10
2019-04-21T23:11:23.513Z,3.43
2019-04-21T23:14:03.752Z,3.60
2019-04-21T23:16:32.214Z,3.33
2019-04-21T23:19:19.798Z,3.40
2019-04-21T23:21:53.805Z,3.37
2019-04-21T23:24:33.079Z,2.70
2019-04-21T23:26:46.253Z,3.40
2019-04-21T23:29:41.235Z,3.77
2019-04-21T23:32:01.853Z,3.47
2019-04-21T23:34:20.882Z,3.27
2019-04-21T23:36:53.052Z,2.93
2019-04-21T23:39:23.412Z,2.73
2019-04-21T23:41:53.555Z,2.97
2019-04-21T23:44:24.130Z,3.80
2019-04-21T23:47:00.553Z,3.60
2019-04-21T23:49:40.460Z,3.20
2019-04-21T23:52:04.697Z,4.30
2019-04-21T23:54:33.397Z,4.07
2019-04-21T23:57:14.473Z,3.00
2019-04-21T23:59:40.937Z,3.00
